createdAt,value
2019-04-06T00:00:19.428Z,137.80
2019-04-06T00:02:48.115Z,115.30
2019-04-06T00:05:16.954Z,132.17
2019-04-06T00:07:45.810Z,134.83
2019-04-06T00:10:14.995Z,140.00
2019-04-06T00:12:43.644Z,135.80
2019-04-06T00:15:12.407Z,125.90
2019-04-06T00:17:41.104Z,144.67
2019-04-06T00:20:10.352Z,142.17
2019-04-06T00:22:39.339Z,139.67
2019-04-06T00:25:09.615Z,143.20
2019-04-06T00:27:38.324Z,147.90
2019-04-06T00:30:10.370Z,135.30
2019-04-06T00:32:40.812Z,136.53
2019-04-06T00:35:09.637Z,135.57
2019-04-06T00:37:38.557Z,145.37
2019-04-06T00:40:07.719Z,144.43
2019-04-06T00:42:36.500Z,143.53
2019-04-06T00:45:06.584Z,155.80
2019-04-06T00:47:35.429Z,144.10
2019-04-06T00:50:06.100Z,126.23
2019-04-06T00:52:34.968Z,143.27
2019-04-06T00:55:04.203Z,127.43
2019-04-06T00:57:32.911Z,131.73
2019-04-06T01:00:01.589Z,152.90
2019-04-06T01:02:30.474Z,143.53
2019-04-06T01:04:59.272Z,148.80
2019-04-06T01:07:27.989Z,165.80
2019-04-06T01:09:56.584Z,153.30
2019-04-06T01:12:25.243Z,148.33
2019-04-06T01:14:54.122Z,136.17
2019-04-06T01:17:23.352Z,151.90
2019-04-06T01:19:51.995Z,145.50
2019-04-06T01:22:20.769Z,137.67
2019-04-06T01:24:49.523Z,139.87
2019-04-06T01:27:18.238Z,146.77
2019-04-06T01:29:46.908Z,149.07
2019-04-06T01:32:15.679Z,134.83
2019-04-06T01:34:44.418Z,142.67
2019-04-06T01:37:13.144Z,147.30
2019-04-06T01:39:41.836Z,150.40
2019-04-06T01:42:10.570Z,134.33
2019-04-06T01:44:39.405Z,144.57
2019-04-06T01:47:08.143Z,144.77
2019-04-06T01:49:36.914Z,163.00
2019-04-06T01:52:05.564Z,138.87
2019-04-06T01:54:34.136Z,168.83
2019-04-06T01:57:02.801Z,141.63
2019-04-06T01:59:31.573Z,171.40
2019-04-06T02:02:01.823Z,142.43
2019-04-06T02:04:30.503Z,132.90
2019-04-06T02:06:59.265Z,139.20
2019-04-06T02:09:27.965Z,145.37
2019-04-06T02:11:56.722Z,142.67
2019-04-06T02:14:25.418Z,145.83
2019-04-06T02:16:54.114Z,142.60
2019-04-06T02:19:22.773Z,131.97
2019-04-06T02:21:51.537Z,151.90
2019-04-06T02:24:20.180Z,159.33
2019-04-06T02:26:48.880Z,144.97
2019-04-06T02:29:17.535Z,149.87
2019-04-06T02:31:47.781Z,138.80
2019-04-06T02:34:18.224Z,142.63
2019-04-06T02:36:48.644Z,129.97
2019-04-06T02:39:18.917Z,134.23
2019-04-06T02:41:49.258Z,146.40
2019-04-06T02:44:17.967Z,135.97
2019-04-06T02:46:46.639Z,138.73
2019-04-06T02:49:15.451Z,135.43
2019-04-06T02:51:44.208Z,128.87
2019-04-06T02:54:13.099Z,131.50
2019-04-06T02:56:46.245Z,124.47
2019-04-06T02:59:12.302Z,127.90
2019-04-06T03:01:41.156Z,132.60
2019-04-06T03:04:10.129Z,126.00
2019-04-06T03:06:39.037Z,129.73
2019-04-06T03:09:11.348Z,123.83
2019-04-06T03:11:39.734Z,127.80
2019-04-06T03:14:08.589Z,119.47
2019-04-06T03:16:37.536Z,134.33
2019-04-06T03:19:06.377Z,115.23
2019-04-06T03:21:35.067Z,128.27
2019-04-06T03:24:03.964Z,114.13
2019-04-06T03:26:32.653Z,116.30
2019-04-06T03:29:01.400Z,109.50
2019-04-06T03:31:30.422Z,130.90
2019-04-06T03:33:59.741Z,125.23
2019-04-06T03:36:28.545Z,134.30
2019-04-06T03:38:57.241Z,130.63
2019-04-06T03:41:25.999Z,115.90
2019-04-06T03:43:54.643Z,134.67
2019-04-06T03:46:23.452Z,125.80
2019-04-06T03:48:52.150Z,119.77
2019-04-06T03:51:20.866Z,123.40
2019-04-06T03:53:49.856Z,135.90
2019-04-06T03:56:18.843Z,124.20
2019-04-06T03:58:47.549Z,133.97
2019-04-06T04:01:16.283Z,131.83
2019-04-06T04:03:44.923Z,115.00
2019-04-06T04:06:13.649Z,124.83
2019-04-06T04:08:42.313Z,112.63
2019-04-06T04:11:11.228Z,120.10
2019-04-06T04:13:39.967Z,126.60
2019-04-06T04:16:08.717Z,119.17
2019-04-06T04:18:37.461Z,119.57
2019-04-06T04:21:06.318Z,121.23
2019-04-06T04:23:35.080Z,117.47
2019-04-06T04:26:03.743Z,119.23
2019-04-06T04:28:32.410Z,114.33
2019-04-06T04:31:01.216Z,125.77
2019-04-06T04:33:31.314Z,124.30
2019-04-06T04:36:00.193Z,124.00
2019-04-06T04:38:29.139Z,120.27
2019-04-06T04:40:57.888Z,114.40
2019-04-06T04:43:26.571Z,118.43
2019-04-06T04:45:55.453Z,128.60
2019-04-06T04:48:24.287Z,112.63
2019-04-06T04:50:53.325Z,124.13
2019-04-06T04:53:22.386Z,139.47
2019-04-06T04:55:51.059Z,136.63
2019-04-06T04:58:19.740Z,119.00
2019-04-06T05:00:48.493Z,126.13
2019-04-06T05:03:17.311Z,132.83
2019-04-06T05:05:46.015Z,124.00
2019-04-06T05:08:14.726Z,132.97
2019-04-06T05:10:43.452Z,122.20
2019-04-06T05:13:12.151Z,125.83
2019-04-06T05:15:42.086Z,135.97
2019-04-06T05:18:10.887Z,135.17
2019-04-06T05:20:39.464Z,132.87
2019-04-06T05:23:08.223Z,132.23
2019-04-06T05:25:36.861Z,134.00
2019-04-06T05:28:05.579Z,130.83
2019-04-06T05:30:34.365Z,138.17
2019-04-06T05:33:03.008Z,133.93
2019-04-06T05:35:31.829Z,124.70
2019-04-06T05:38:00.644Z,131.90
2019-04-06T05:40:29.375Z,129.20
2019-04-06T05:42:58.237Z,131.77
2019-04-06T05:45:26.916Z,131.43
2019-04-06T05:47:55.650Z,134.17
2019-04-06T05:50:24.500Z,128.30
2019-04-06T05:52:53.174Z,121.67
2019-04-06T05:55:24.388Z,129.80
2019-04-06T05:58:02.886Z,115.43
2019-04-06T06:00:22.954Z,128.60
2019-04-06T06:02:51.826Z,135.40
2019-04-06T06:05:20.969Z,120.60
2019-04-06T06:07:49.867Z,130.40
2019-04-06T06:10:18.891Z,130.90
2019-04-06T06:12:47.778Z,138.30
2019-04-06T06:15:16.871Z,126.57
2019-04-06T06:17:45.535Z,130.23
2019-04-06T06:20:14.817Z,137.70
2019-04-06T06:22:43.690Z,127.33
2019-04-06T06:25:12.911Z,130.43
2019-04-06T06:27:41.687Z,127.93
2019-04-06T06:30:10.751Z,124.90
2019-04-06T06:32:39.628Z,134.90
2019-04-06T06:35:08.707Z,122.23
2019-04-06T06:37:37.596Z,133.53
2019-04-06T06:40:08.043Z,133.03
2019-04-06T06:42:36.721Z,124.33
2019-04-06T06:45:06.708Z,128.83
2019-04-06T06:47:35.585Z,130.97
2019-04-06T06:50:06.572Z,123.40
2019-04-06T06:52:35.313Z,128.90
2019-04-06T06:55:05.236Z,129.93
2019-04-06T06:57:33.963Z,133.60
2019-04-06T07:00:02.785Z,128.93
2019-04-06T07:02:31.519Z,115.50
2019-04-06T07:05:00.215Z,114.60
2019-04-06T07:07:28.953Z,119.70
2019-04-06T07:10:05.508Z,122.30
2019-04-06T07:12:28.090Z,122.77
2019-04-06T07:14:56.862Z,138.90
2019-04-06T07:17:25.610Z,132.10
2019-04-06T07:19:54.283Z,122.93
2019-04-06T07:22:23.186Z,121.80
2019-04-06T07:24:51.985Z,140.00
2019-04-06T07:27:20.691Z,127.30
2019-04-06T07:29:49.458Z,132.40
2019-04-06T07:32:18.213Z,118.80
2019-04-06T07:34:46.957Z,130.43
2019-04-06T07:37:15.812Z,137.37
2019-04-06T07:39:44.673Z,121.80
2019-04-06T07:42:13.495Z,121.90
2019-04-06T07:44:42.385Z,121.60
2019-04-06T07:47:11.178Z,124.97
2019-04-06T07:49:40.075Z,129.03
2019-04-06T07:52:08.883Z,117.23
2019-04-06T07:54:37.698Z,121.73
2019-04-06T07:57:06.646Z,126.67
2019-04-06T07:59:35.793Z,122.83
2019-04-06T08:02:04.663Z,122.23
2019-04-06T08:04:33.669Z,116.30
2019-04-06T08:07:02.539Z,117.93
2019-04-06T08:09:31.322Z,124.37
2019-04-06T08:12:00.522Z,119.57
2019-04-06T08:14:30.647Z,109.97
2019-04-06T08:16:59.373Z,117.10
2019-04-06T08:19:28.217Z,106.70
2019-04-06T08:21:56.993Z,110.87
2019-04-06T08:24:25.875Z,117.63
2019-04-06T08:26:55.590Z,110.10
2019-04-06T08:29:25.362Z,107.57
2019-04-06T08:31:54.630Z,108.07
2019-04-06T08:34:23.781Z,123.13
2019-04-06T08:36:52.846Z,119.60
2019-04-06T08:39:21.551Z,103.50
2019-04-06T08:41:50.753Z,91.03
2019-04-06T08:44:22.498Z,101.40
2019-04-06T08:46:51.339Z,93.60
2019-04-06T08:49:20.212Z,99.57
2019-04-06T08:51:49.054Z,96.13
2019-04-06T08:54:17.970Z,89.63
2019-04-06T08:56:46.708Z,86.73
2019-04-06T08:59:15.497Z,80.80
2019-04-06T09:01:44.267Z,97.90
2019-04-06T09:04:13.216Z,95.80
2019-04-06T09:06:42.206Z,94.97
2019-04-06T09:09:10.996Z,92.17
2019-04-06T09:11:40.906Z,96.43
2019-04-06T09:14:09.607Z,92.63
2019-04-06T09:16:38.482Z,89.03
2019-04-06T09:19:07.261Z,96.07
2019-04-06T09:21:36.087Z,97.60
2019-04-06T09:24:05.278Z,101.87
2019-04-06T09:26:34.093Z,95.00
2019-04-06T09:29:02.924Z,91.63
2019-04-06T09:31:34.647Z,81.47
2019-04-06T09:34:03.401Z,83.33
2019-04-06T09:36:32.182Z,89.93
2019-04-06T09:39:01.303Z,84.23
2019-04-06T09:41:30.573Z,93.07
2019-04-06T09:43:59.675Z,88.23
2019-04-06T09:46:30.124Z,81.10
2019-04-06T09:49:00.402Z,88.73
2019-04-06T09:51:30.775Z,79.10
2019-04-06T09:54:06.316Z,84.90
2019-04-06T09:56:33.040Z,92.00
2019-04-06T09:59:03.611Z,82.40
2019-04-06T10:01:38.802Z,85.33
2019-04-06T10:04:06.047Z,94.20
2019-04-06T10:06:36.555Z,79.27
2019-04-06T10:09:09.460Z,82.07
2019-04-06T10:11:39.811Z,85.97
2019-04-06T10:14:10.274Z,82.70
2019-04-06T10:16:40.645Z,90.53
2019-04-06T10:19:11.062Z,91.40
2019-04-06T10:21:41.429Z,78.17
2019-04-06T10:24:12.067Z,89.80
2019-04-06T10:26:42.410Z,81.53
2019-04-06T10:29:12.742Z,84.53
2019-04-06T10:31:41.513Z,78.60
2019-04-06T10:34:10.318Z,78.90
2019-04-06T10:36:40.743Z,76.77
2019-04-06T10:39:11.068Z,81.17
2019-04-06T10:41:41.432Z,80.43
2019-04-06T10:44:11.708Z,81.57
2019-04-06T10:46:41.525Z,74.33
2019-04-06T10:49:11.954Z,80.20
2019-04-06T10:51:42.360Z,82.63
2019-04-06T10:54:12.810Z,82.53
2019-04-06T10:56:43.480Z,75.10
2019-04-06T10:59:13.938Z,80.63
2019-04-06T11:01:44.350Z,94.87
2019-04-06T11:04:14.677Z,83.60
2019-04-06T11:06:43.439Z,84.50
2019-04-06T11:09:13.760Z,76.17
2019-04-06T11:11:44.095Z,81.17
2019-04-06T11:14:14.484Z,79.27
2019-04-06T11:16:47.340Z,74.70
2019-04-06T11:19:17.007Z,85.67
2019-04-06T11:21:47.639Z,78.23
2019-04-06T11:24:18.111Z,85.37
2019-04-06T11:26:47.193Z,71.60
2019-04-06T11:29:17.584Z,83.73
2019-04-06T11:31:47.416Z,63.77
2019-04-06T11:34:17.873Z,74.50
2019-04-06T11:36:48.857Z,78.60
2019-04-06T11:39:19.374Z,72.97
2019-04-06T11:41:49.746Z,70.50
2019-04-06T11:44:20.105Z,75.47
2019-04-06T11:46:50.467Z,76.23
2019-04-06T11:49:20.796Z,71.47
2019-04-06T11:51:51.366Z,79.17
2019-04-06T11:54:22.039Z,75.80
2019-04-06T11:56:51.816Z,75.60
2019-04-06T11:59:20.502Z,70.93
2019-04-06T12:01:50.840Z,84.60
2019-04-06T12:04:21.240Z,75.80
2019-04-06T12:06:55.364Z,73.10
2019-04-06T12:09:24.649Z,79.00
2019-04-06T12:11:57.043Z,79.97
2019-04-06T12:14:28.572Z,78.13
2019-04-06T12:16:59.365Z,72.90
2019-04-06T12:19:32.989Z,77.27
2019-04-06T12:22:03.685Z,81.53
2019-04-06T12:24:34.169Z,73.63
2019-04-06T12:27:04.409Z,70.77
2019-04-06T12:29:35.062Z,76.60
2019-04-06T12:32:04.098Z,80.10
2019-04-06T12:34:34.443Z,71.73
2019-04-06T12:37:10.533Z,76.83
2019-04-06T12:39:51.418Z,75.53
2019-04-06T12:42:16.347Z,70.30
2019-04-06T12:44:46.804Z,67.57
2019-04-06T12:47:18.524Z,84.00
2019-04-06T12:49:50.722Z,74.70
2019-04-06T12:52:19.566Z,73.63
2019-04-06T12:54:49.906Z,81.73
2019-04-06T12:57:18.569Z,69.67
2019-04-06T12:59:49.106Z,77.80
2019-04-06T13:02:19.766Z,73.00
2019-04-06T13:04:50.104Z,74.20
2019-04-06T13:07:19.005Z,71.27
2019-04-06T13:09:52.211Z,73.77
2019-04-06T13:12:21.018Z,75.00
2019-04-06T13:14:51.381Z,78.57
2019-04-06T13:17:21.209Z,73.17
2019-04-06T13:19:51.643Z,66.47
2019-04-06T13:22:22.371Z,78.23
2019-04-06T13:24:51.216Z,72.57
2019-04-06T13:27:22.011Z,74.70
2019-04-06T13:29:52.853Z,78.80
2019-04-06T13:32:23.213Z,81.77
2019-04-06T13:34:53.579Z,70.23
2019-04-06T13:37:27.152Z,71.70
2019-04-06T13:39:59.903Z,69.87
2019-04-06T13:42:30.222Z,83.20
2019-04-06T13:45:00.524Z,76.87
2019-04-06T13:47:32.428Z,66.70
2019-04-06T13:50:03.153Z,65.40
2019-04-06T13:52:33.122Z,67.33
2019-04-06T13:55:03.560Z,73.07
2019-04-06T13:57:34.690Z,71.93
2019-04-06T14:00:07.042Z,65.27
2019-04-06T14:02:37.440Z,72.20
2019-04-06T14:05:09.804Z,66.50
2019-04-06T14:07:40.244Z,72.50
2019-04-06T14:10:11.104Z,63.00
2019-04-06T14:12:41.541Z,62.73
2019-04-06T14:15:12.279Z,66.33
2019-04-06T14:17:42.793Z,61.50
2019-04-06T14:20:11.619Z,70.93
2019-04-06T14:22:42.053Z,65.20
2019-04-06T14:25:15.387Z,65.40
2019-04-06T14:27:45.705Z,60.53
2019-04-06T14:30:16.144Z,63.67
2019-04-06T14:32:46.450Z,61.77
2019-04-06T14:35:16.861Z,69.43
2019-04-06T14:37:47.184Z,59.97
2019-04-06T14:40:18.256Z,57.80
2019-04-06T14:42:48.246Z,54.40
2019-04-06T14:45:19.124Z,58.90
2019-04-06T14:47:49.413Z,57.20
2019-04-06T14:50:19.930Z,59.70
2019-04-06T14:52:49.653Z,74.13
2019-04-06T14:55:20.037Z,56.60
2019-04-06T14:57:50.393Z,65.90
2019-04-06T15:00:20.851Z,61.37
2019-04-06T15:02:50.634Z,63.70
2019-04-06T15:05:21.000Z,70.00
2019-04-06T15:07:51.344Z,57.20
2019-04-06T15:10:21.679Z,53.53
2019-04-06T15:12:52.083Z,55.23
2019-04-06T15:15:22.472Z,54.70
2019-04-06T15:17:54.730Z,54.53
2019-04-06T15:20:23.134Z,54.60
2019-04-06T15:22:53.711Z,61.03
2019-04-06T15:25:28.942Z,58.00
2019-04-06T15:27:59.818Z,50.50
2019-04-06T15:30:30.243Z,50.40
2019-04-06T15:33:01.012Z,52.13
2019-04-06T15:35:30.948Z,50.77
2019-04-06T15:38:01.283Z,53.67
2019-04-06T15:40:31.718Z,50.50
2019-04-06T15:43:02.008Z,50.63
2019-04-06T15:45:32.656Z,46.67
2019-04-06T15:48:02.991Z,49.87
2019-04-06T15:50:33.627Z,41.27
2019-04-06T15:53:04.264Z,47.53
2019-04-06T15:55:33.087Z,43.20
2019-04-06T15:58:03.525Z,47.73
2019-04-06T16:00:33.942Z,38.70
2019-04-06T16:03:04.382Z,42.30
2019-04-06T16:05:34.677Z,43.40
2019-04-06T16:08:05.417Z,46.17
2019-04-06T16:10:34.616Z,43.20
2019-04-06T16:13:05.059Z,44.63
2019-04-06T16:15:35.861Z,41.10
2019-04-06T16:18:06.049Z,40.53
2019-04-06T16:20:34.964Z,44.63
2019-04-06T16:23:05.343Z,45.73
2019-04-06T16:25:36.144Z,42.70
2019-04-06T16:28:07.049Z,37.77
2019-04-06T16:30:35.879Z,40.73
2019-04-06T16:33:08.731Z,35.20
2019-04-06T16:35:38.408Z,37.80
2019-04-06T16:38:08.868Z,35.93
2019-04-06T16:40:39.284Z,40.70
2019-04-06T16:43:09.618Z,38.30
2019-04-06T16:45:39.969Z,37.77
2019-04-06T16:48:10.342Z,38.87
2019-04-06T16:50:39.085Z,38.47
2019-04-06T16:53:09.497Z,37.03
2019-04-06T16:55:39.864Z,40.30
2019-04-06T16:58:10.121Z,41.27
2019-04-06T17:00:40.526Z,38.20
2019-04-06T17:03:10.869Z,38.00
2019-04-06T17:05:40.648Z,43.03
2019-04-06T17:08:12.766Z,36.10
2019-04-06T17:10:43.020Z,35.03
2019-04-06T17:13:12.381Z,35.30
2019-04-06T17:15:42.385Z,36.57
2019-04-06T17:18:13.165Z,42.27
2019-04-06T17:20:43.690Z,43.57
2019-04-06T17:23:12.367Z,38.77
2019-04-06T17:25:42.126Z,38.40
2019-04-06T17:28:12.530Z,34.03
2019-04-06T17:30:42.856Z,33.63
2019-04-06T17:33:13.178Z,38.43
2019-04-06T17:35:43.910Z,34.20
2019-04-06T17:38:14.382Z,37.10
2019-04-06T17:40:44.641Z,40.43
2019-04-06T17:43:14.478Z,34.83
2019-04-06T17:45:44.981Z,33.60
2019-04-06T17:48:15.774Z,46.13
2019-04-06T17:50:47.975Z,39.90
2019-04-06T17:53:18.276Z,39.80
2019-04-06T17:55:48.792Z,42.73
2019-04-06T17:58:19.116Z,35.77
2019-04-06T18:00:50.360Z,35.97
2019-04-06T18:03:20.765Z,35.10
2019-04-06T18:05:51.040Z,38.17
2019-04-06T18:08:21.426Z,39.03
2019-04-06T18:10:51.762Z,40.77
2019-04-06T18:13:22.125Z,44.43
2019-04-06T18:15:51.291Z,37.80
2019-04-06T18:18:20.242Z,41.83
2019-04-06T18:20:49.232Z,38.47
2019-04-06T18:23:18.130Z,52.67
2019-04-06T18:25:46.878Z,41.40
2019-04-06T18:28:16.019Z,39.47
2019-04-06T18:30:46.429Z,38.87
2019-04-06T18:33:16.776Z,39.90
2019-04-06T18:35:45.496Z,43.00
2019-04-06T18:38:14.740Z,40.37
2019-04-06T18:40:44.983Z,42.43
2019-04-06T18:43:14.204Z,41.90
2019-04-06T18:45:43.304Z,47.30
2019-04-06T18:48:12.183Z,43.00
2019-04-06T18:50:40.900Z,40.67
2019-04-06T18:53:09.758Z,41.93
2019-04-06T18:55:39.002Z,44.57
2019-04-06T18:58:12.410Z,38.10
2019-04-06T19:00:39.020Z,46.30
2019-04-06T19:03:14.706Z,36.50
2019-04-06T19:05:38.246Z,35.20
2019-04-06T19:08:06.971Z,39.80
2019-04-06T19:10:36.439Z,39.80
2019-04-06T19:13:05.416Z,38.13
2019-04-06T19:15:34.319Z,34.30
2019-04-06T19:18:03.098Z,33.97
2019-04-06T19:20:32.202Z,43.27
2019-04-06T19:23:01.439Z,44.77
2019-04-06T19:25:30.283Z,48.07
2019-04-06T19:27:59.109Z,43.97
2019-04-06T19:30:28.735Z,49.37
2019-04-06T19:32:57.721Z,48.47
2019-04-06T19:35:26.488Z,49.87
2019-04-06T19:37:55.270Z,52.10
2019-04-06T19:40:23.991Z,54.80
2019-04-06T19:42:53.677Z,54.90
2019-04-06T19:45:22.624Z,61.23
2019-04-06T19:47:51.706Z,52.10
2019-04-06T19:50:20.999Z,57.80
2019-04-06T19:52:49.927Z,63.93
2019-04-06T19:55:19.103Z,64.53
2019-04-06T19:57:47.969Z,58.80
2019-04-06T20:00:17.833Z,56.10
2019-04-06T20:02:46.644Z,60.50
2019-04-06T20:05:15.497Z,64.67
2019-04-06T20:07:44.577Z,63.57
2019-04-06T20:10:13.894Z,55.73
2019-04-06T20:12:42.749Z,57.33
2019-04-06T20:15:12.089Z,59.40
2019-04-06T20:17:40.980Z,61.33
2019-04-06T20:20:10.174Z,72.53
2019-04-06T20:22:38.956Z,70.63
2019-04-06T20:25:12.712Z,71.73
2019-04-06T20:27:42.071Z,73.30
2019-04-06T20:30:12.357Z,74.57
2019-04-06T20:32:41.208Z,80.37
2019-04-06T20:35:10.900Z,70.47
2019-04-06T20:37:39.791Z,68.87
2019-04-06T20:40:09.641Z,66.43
2019-04-06T20:42:39.441Z,62.57
2019-04-06T20:45:09.309Z,70.03
2019-04-06T20:47:38.551Z,68.60
2019-04-06T20:50:08.386Z,90.87
2019-04-06T20:52:37.222Z,77.13
2019-04-06T20:55:06.906Z,75.93
2019-04-06T20:57:36.297Z,76.40
2019-04-06T21:00:07.269Z,76.30
2019-04-06T21:02:36.287Z,76.07
2019-04-06T21:05:07.191Z,83.70
2019-04-06T21:07:35.943Z,73.43
2019-04-06T21:10:07.439Z,81.07
2019-04-06T21:12:36.886Z,71.73
2019-04-06T21:15:17.704Z,74.50
2019-04-06T21:17:38.634Z,85.07
2019-04-06T21:20:08.279Z,76.43
2019-04-06T21:22:37.039Z,105.60
2019-04-06T21:25:07.085Z,115.17
2019-04-06T21:27:36.285Z,124.83
2019-04-06T21:30:08.221Z,114.03
2019-04-06T21:32:37.230Z,122.23
2019-04-06T21:35:07.371Z,92.07
2019-04-06T21:37:36.820Z,98.00
2019-04-06T21:40:07.196Z,111.27
2019-04-06T21:42:36.508Z,95.70
2019-04-06T21:45:07.695Z,94.40
2019-04-06T21:47:38.756Z,96.37
2019-04-06T21:50:08.570Z,90.03
2019-04-06T21:52:38.671Z,93.40
2019-04-06T21:55:11.134Z,97.50
2019-04-06T21:57:40.516Z,100.33
2019-04-06T22:00:11.044Z,98.90
2019-04-06T22:02:40.195Z,91.50
2019-04-06T22:05:10.346Z,98.60
2019-04-06T22:07:48.064Z,96.27
2019-04-06T22:10:10.608Z,106.03
2019-04-06T22:12:39.941Z,103.17
2019-04-06T22:15:11.736Z,109.70
2019-04-06T22:17:41.033Z,99.30
2019-04-06T22:20:10.730Z,89.20
2019-04-06T22:22:40.424Z,110.07
2019-04-06T22:25:09.385Z,98.50
2019-04-06T22:27:38.206Z,102.33
2019-04-06T22:30:09.746Z,97.80
2019-04-06T22:32:39.266Z,88.30
2019-04-06T22:35:09.014Z,87.37
2019-04-06T22:37:37.849Z,85.43
2019-04-06T22:40:08.633Z,90.90
2019-04-06T22:42:37.420Z,88.83
2019-04-06T22:45:10.463Z,86.93
2019-04-06T22:47:39.907Z,75.70
2019-04-06T22:50:09.765Z,76.13
2019-04-06T22:52:38.710Z,73.93
2019-04-06T22:55:08.569Z,78.20
2019-04-06T22:57:37.505Z,84.57
2019-04-06T23:00:11.242Z,73.37
2019-04-06T23:02:41.852Z,79.40
2019-04-06T23:05:12.159Z,89.20
2019-04-06T23:07:40.774Z,76.50
2019-04-06T23:10:10.172Z,79.10
2019-04-06T23:12:39.425Z,85.17
2019-04-06T23:15:08.371Z,93.47
2019-04-06T23:17:37.206Z,85.70
2019-04-06T23:20:06.930Z,83.90
2019-04-06T23:22:35.714Z,85.33
2019-04-06T23:25:05.352Z,92.93
2019-04-06T23:27:34.084Z,92.60
2019-04-06T23:30:03.615Z,86.83
2019-04-06T23:32:34.005Z,90.10
2019-04-06T23:35:02.934Z,83.17
2019-04-06T23:37:32.098Z,89.33
2019-04-06T23:40:01.582Z,88.07
2019-04-06T23:42:30.879Z,82.67
2019-04-06T23:44:59.777Z,87.27
2019-04-06T23:47:28.510Z,82.00
2019-04-06T23:49:57.449Z,77.67
2019-04-06T23:52:26.337Z,83.57
2019-04-06T23:54:55.563Z,79.17
2019-04-06T23:57:24.322Z,80.73
2019-04-06T23:59:52.966Z,86.83
